createdAt,value
2019-05-01T05:02:17.471Z,29.82
2019-05-01T05:04:47.618Z,29.50
2019-05-01T05:07:17.848Z,27.32
2019-05-01T05:09:47.995Z,31.75
2019-05-01T05:12:35.235Z,27.90
2019-05-01T05:15:17.004Z,28.87
2019-05-01T05:17:47.001Z,29.95
2019-05-01T05:20:17.997Z,31.95
2019-05-01T05:22:48.381Z,30.40
2019-05-01T05:25:18.619Z,33.48
2019-05-01T05:27:50.841Z,28.90
2019-05-01T05:30:22.117Z,26.35
2019-05-01T05:32:53.918Z,34.95
2019-05-01T05:35:26.062Z,30.88
2019-05-01T05:37:59.973Z,29.02
2019-05-01T05:40:32.043Z,30.43
2019-05-01T05:43:02.575Z,22.40
2019-05-01T05:45:33.631Z,30.75
2019-05-01T05:48:04.034Z,28.17
2019-05-01T05:50:53.697Z,32.08
2019-05-01T05:53:38.950Z,34.00
2019-05-01T05:56:13.650Z,33.95
2019-05-01T06:01:34.338Z,30.65
2019-05-01T06:04:09.959Z,34.13
2019-05-01T06:06:43.875Z,31.93
2019-05-01T06:09:16.338Z,35.70
2019-05-01T06:11:48.471Z,35.13
2019-05-01T06:14:38.276Z,33.73
2019-05-01T06:17:28.641Z,36.00
2019-05-01T06:19:58.816Z,38.95
2019-05-01T06:22:31.469Z,31.40
2019-05-01T06:25:06.638Z,38.25
2019-05-01T06:27:37.143Z,35.78
2019-05-01T06:30:11.123Z,35.43
2019-05-01T06:32:42.308Z,37.13
2019-05-01T06:35:12.609Z,35.75
2019-05-01T06:38:03.981Z,34.10
2019-05-01T06:40:39.713Z,36.53
2019-05-01T06:43:29.694Z,35.70
2019-05-01T06:46:13.696Z,37.53
2019-05-01T06:48:53.421Z,36.55
2019-05-01T06:51:34.253Z,34.40
2019-05-01T06:54:11.227Z,35.03
2019-05-01T06:56:41.936Z,32.35
2019-05-01T06:59:14.143Z,32.90
2019-05-01T07:01:45.077Z,39.48
2019-05-01T07:04:15.380Z,31.30
2019-05-01T07:06:45.616Z,36.55
2019-05-01T07:09:27.326Z,38.65
2019-05-01T07:11:52.743Z,38.40
2019-05-01T07:14:19.664Z,40.08
2019-05-01T07:16:49.694Z,40.88
2019-05-01T07:19:21.594Z,36.48
2019-05-01T07:21:51.630Z,37.78
2019-05-01T07:24:24.147Z,37.50
2019-05-01T07:26:53.301Z,41.63
2019-05-01T07:29:24.950Z,37.05
2019-05-01T07:31:54.922Z,41.13
2019-05-01T07:34:26.205Z,37.98
2019-05-01T07:36:56.584Z,41.58
2019-05-01T07:39:26.570Z,40.15
2019-05-01T07:41:58.420Z,41.75
2019-05-01T07:44:35.814Z,37.48
2019-05-01T07:47:25.863Z,43.83
2019-05-01T07:49:58.632Z,36.90
2019-05-01T07:52:28.857Z,37.33
2019-05-01T07:54:59.577Z,33.78
2019-05-01T07:57:34.371Z,37.75
2019-05-01T08:00:03.664Z,32.55
2019-05-01T08:02:34.414Z,38.83
2019-05-01T08:05:10.071Z,37.30
2019-05-01T08:07:38.062Z,37.78
2019-05-01T08:10:08.804Z,39.90
2019-05-01T08:12:39.117Z,41.37
2019-05-01T08:15:09.736Z,37.38
2019-05-01T08:17:41.341Z,41.18
2019-05-01T08:20:16.802Z,39.58
2019-05-01T08:22:46.776Z,38.30
2019-05-01T08:25:16.839Z,45.03
2019-05-01T08:27:50.958Z,39.23
2019-05-01T08:30:22.059Z,37.33
2019-05-01T08:32:53.889Z,38.70
2019-05-01T08:35:25.554Z,48.02
2019-05-01T08:37:58.516Z,47.85
2019-05-01T08:40:27.317Z,52.60
2019-05-01T08:42:57.231Z,53.28
2019-05-01T08:45:47.012Z,45.90
2019-05-01T08:48:35.235Z,49.10
2019-05-01T08:51:02.595Z,50.55
2019-05-01T08:53:33.034Z,46.42
2019-05-01T08:56:03.559Z,52.88
2019-05-01T08:58:33.588Z,44.50
2019-05-01T09:01:05.231Z,49.53
2019-05-01T09:03:36.889Z,45.35
2019-05-01T09:06:08.070Z,55.60
2019-05-01T09:08:38.454Z,50.63
2019-05-01T09:11:09.186Z,47.43
2019-05-01T09:13:39.218Z,46.58
2019-05-01T09:16:09.833Z,42.75
2019-05-01T09:18:39.817Z,45.95
2019-05-01T09:21:10.276Z,52.38
2019-05-01T09:23:40.700Z,47.03
2019-05-01T09:26:28.738Z,52.03
2019-05-01T09:29:03.261Z,51.83
2019-05-01T09:31:35.569Z,45.83
2019-05-01T09:34:09.256Z,56.33
2019-05-01T09:36:38.430Z,54.58
2019-05-01T09:39:10.267Z,59.77
2019-05-01T09:41:43.148Z,51.92
2019-05-01T09:44:12.551Z,58.50
2019-05-01T09:46:42.691Z,55.03
2019-05-01T09:49:14.229Z,53.08
2019-05-01T09:51:50.100Z,54.20
2019-05-01T09:54:23.188Z,57.95
2019-05-01T09:56:53.609Z,52.30
2019-05-01T09:59:24.138Z,51.92
2019-05-01T10:01:54.665Z,50.28
2019-05-01T10:04:29.635Z,49.75
2019-05-01T10:06:57.131Z,48.70
2019-05-01T10:09:27.683Z,49.30
2019-05-01T10:11:58.416Z,46.25
2019-05-01T10:14:31.709Z,44.08
2019-05-01T10:17:01.111Z,42.65
2019-05-01T10:19:31.695Z,40.28
2019-05-01T10:22:03.789Z,43.75
2019-05-01T10:24:37.786Z,35.88
2019-05-01T10:27:09.060Z,36.93
2019-05-01T10:30:01.595Z,37.95
2019-05-01T10:32:36.946Z,41.25
2019-05-01T10:35:09.112Z,46.08
2019-05-01T10:37:39.539Z,42.75
2019-05-01T10:40:10.175Z,43.40
2019-05-01T10:42:41.158Z,39.03
2019-05-01T10:45:11.943Z,40.38
2019-05-01T10:47:42.366Z,48.08
2019-05-01T10:50:14.021Z,43.50
2019-05-01T10:52:44.344Z,40.95
2019-05-01T10:55:14.676Z,37.75
2019-05-01T10:57:45.195Z,38.23
2019-05-01T11:00:17.622Z,33.13
2019-05-01T11:02:48.223Z,34.73
2019-05-01T11:05:18.736Z,36.83
2019-05-01T11:07:49.252Z,36.25
2019-05-01T11:10:19.679Z,34.33
2019-05-01T11:12:50.209Z,32.65
2019-05-01T11:15:20.839Z,27.45
2019-05-01T11:17:51.472Z,27.98
2019-05-01T11:20:21.995Z,31.75
2019-05-01T11:22:55.087Z,32.15
2019-05-01T11:25:25.920Z,32.35
2019-05-01T11:27:56.084Z,35.83
2019-05-01T11:30:26.771Z,30.00
2019-05-01T11:33:01.843Z,33.28
2019-05-01T11:35:50.354Z,27.32
2019-05-01T11:38:22.524Z,24.90
2019-05-01T11:40:54.587Z,23.60
2019-05-01T11:43:25.165Z,28.83
2019-05-01T11:45:55.744Z,27.85
2019-05-01T11:48:30.109Z,29.90
2019-05-01T11:51:01.067Z,24.27
2019-05-01T11:53:32.242Z,25.85
2019-05-01T11:56:02.873Z,29.50
2019-05-01T11:58:33.403Z,23.77
2019-05-01T12:01:04.953Z,26.05
2019-05-01T12:03:35.481Z,26.20
2019-05-01T12:06:06.115Z,23.80
2019-05-01T12:08:36.751Z,23.22
2019-05-01T12:11:08.911Z,23.12
2019-05-01T12:13:43.806Z,24.82
2019-05-01T12:16:18.568Z,23.47
2019-05-01T12:18:50.427Z,23.45
2019-05-01T12:21:20.749Z,18.45
2019-05-01T12:23:51.278Z,19.20
2019-05-01T12:26:21.601Z,18.80
2019-05-01T12:28:51.718Z,18.00
2019-05-01T12:31:21.733Z,19.70
2019-05-01T12:33:51.751Z,18.55
2019-05-01T12:36:21.888Z,16.60
2019-05-01T12:38:52.398Z,18.87
2019-05-01T12:41:24.361Z,16.62
2019-05-01T12:43:54.989Z,17.00
2019-05-01T12:46:43.234Z,16.62
2019-05-01T12:49:15.807Z,15.72
2019-05-01T12:51:47.005Z,16.45
2019-05-01T12:54:19.223Z,16.42
2019-05-01T12:56:54.362Z,19.57
2019-05-01T12:59:24.782Z,16.80
2019-05-01T13:01:55.064Z,18.65
2019-05-01T13:04:25.122Z,18.00
2019-05-01T13:06:58.095Z,14.75
2019-05-01T13:09:28.334Z,19.90
2019-05-01T13:11:58.552Z,15.45
2019-05-01T13:14:29.722Z,17.87
2019-05-01T13:16:59.668Z,18.50
2019-05-01T13:19:30.134Z,20.60
2019-05-01T13:22:00.210Z,16.05
2019-05-01T13:24:30.476Z,22.48
2019-05-01T13:27:02.210Z,24.27
2019-05-01T13:29:34.398Z,19.48
2019-05-01T13:32:15.677Z,19.62
2019-05-01T13:34:46.204Z,21.00
2019-05-01T13:37:16.633Z,19.12
2019-05-01T13:39:46.962Z,19.42
2019-05-01T13:42:17.686Z,27.02
2019-05-01T13:44:49.339Z,16.73
2019-05-01T13:47:19.867Z,15.63
2019-05-01T13:49:50.290Z,17.60
2019-05-01T13:52:20.414Z,13.75
2019-05-01T13:54:50.941Z,12.73
2019-05-01T13:57:21.674Z,14.53
2019-05-01T13:59:52.100Z,12.60
2019-05-01T14:02:22.399Z,13.10
2019-05-01T14:04:52.746Z,13.75
2019-05-01T14:07:23.382Z,10.58
2019-05-01T14:09:53.808Z,10.88
2019-05-01T14:12:24.333Z,12.13
2019-05-01T14:14:54.756Z,9.98
2019-05-01T14:17:25.290Z,12.13
2019-05-01T14:20:00.324Z,10.25
2019-05-01T14:22:32.382Z,13.10
2019-05-01T14:25:05.168Z,9.43
2019-05-01T14:27:35.793Z,9.58
2019-05-01T14:30:10.056Z,8.65
2019-05-01T14:32:40.741Z,13.75
2019-05-01T14:35:11.693Z,13.60
2019-05-01T14:37:42.104Z,10.90
2019-05-01T14:40:13.939Z,9.08
2019-05-01T14:42:44.190Z,9.88
2019-05-01T14:45:14.923Z,10.78
2019-05-01T14:47:45.240Z,8.90
2019-05-01T14:50:16.588Z,11.15
2019-05-01T14:52:46.807Z,10.00
2019-05-01T14:55:17.336Z,9.13
2019-05-01T14:57:48.414Z,8.28
2019-05-01T15:00:20.267Z,7.37
2019-05-01T15:02:50.864Z,8.40
2019-05-01T15:05:21.499Z,8.18
2019-05-01T15:07:53.151Z,71.02
2019-05-01T15:10:23.571Z,7.08
2019-05-01T15:12:55.746Z,11.20
2019-05-01T15:15:30.982Z,7.33
2019-05-01T15:18:12.363Z,9.63
2019-05-01T15:20:42.995Z,8.83
2019-05-01T15:23:14.871Z,6.42
2019-05-01T15:25:45.586Z,8.25
2019-05-01T15:28:18.477Z,7.60
2019-05-01T15:30:49.205Z,8.08
2019-05-01T15:33:20.039Z,11.57
2019-05-01T15:35:50.797Z,9.20
2019-05-01T15:38:21.408Z,7.62
2019-05-01T15:41:05.856Z,8.78
2019-05-01T15:43:43.758Z,7.23
2019-05-01T15:46:14.388Z,5.30
2019-05-01T15:48:45.020Z,7.97
2019-05-01T15:51:15.751Z,7.92
2019-05-01T15:53:46.256Z,8.05
2019-05-01T15:56:18.036Z,5.90
2019-05-01T15:58:48.358Z,7.20
2019-05-01T16:01:19.090Z,5.37
2019-05-01T16:03:49.725Z,5.35
2019-05-01T16:06:20.355Z,7.17
2019-05-01T16:08:52.008Z,7.22
2019-05-01T16:11:33.184Z,8.40
2019-05-01T16:14:04.021Z,10.05
2019-05-01T16:16:34.651Z,11.22
2019-05-01T16:19:06.510Z,6.28
2019-05-01T16:21:37.244Z,6.35
2019-05-01T16:24:08.078Z,8.58
2019-05-01T16:26:38.605Z,8.20
2019-05-01T16:29:10.260Z,7.53
2019-05-01T16:31:42.036Z,6.78
2019-05-01T16:34:13.776Z,6.97
2019-05-01T16:36:44.507Z,8.38
2019-05-01T16:39:16.877Z,8.35
2019-05-01T16:41:48.942Z,8.08
2019-05-01T16:44:19.675Z,6.25
2019-05-01T16:46:50.408Z,8.70
2019-05-01T16:49:21.087Z,8.35
2019-05-01T16:51:53.134Z,9.38
2019-05-01T16:54:25.207Z,7.62
2019-05-01T16:56:57.420Z,8.08
2019-05-01T16:59:28.070Z,10.32
2019-05-01T17:02:09.450Z,6.60
2019-05-01T17:04:50.625Z,5.17
2019-05-01T17:07:32.828Z,5.03
2019-05-01T17:10:14.209Z,5.62
2019-05-01T17:12:50.677Z,6.97
2019-05-01T17:15:22.976Z,5.33
2019-05-01T17:17:57.813Z,5.75
2019-05-01T17:20:29.387Z,6.65
2019-05-01T17:23:00.593Z,6.78
2019-05-01T17:25:31.333Z,6.58
2019-05-01T17:28:08.137Z,6.83
2019-05-01T17:30:41.372Z,7.65
2019-05-01T17:33:20.034Z,10.68
2019-05-01T17:35:45.605Z,6.17
2019-05-01T17:38:17.257Z,5.62
2019-05-01T17:40:52.038Z,5.45
2019-05-01T17:43:23.950Z,7.12
2019-05-01T17:45:59.695Z,6.05
2019-05-01T17:48:34.889Z,8.45
2019-05-01T17:51:05.732Z,7.42
2019-05-01T17:53:37.732Z,9.00
2019-05-01T17:56:10.216Z,9.60
2019-05-01T17:58:41.859Z,6.90
2019-05-01T18:01:16.997Z,6.83
2019-05-01T18:03:53.973Z,6.95
2019-05-01T18:06:26.347Z,7.87
2019-05-01T18:09:03.311Z,8.73
2019-05-01T18:11:30.990Z,11.00
2019-05-01T18:14:01.725Z,7.97
2019-05-01T18:16:32.716Z,8.23
2019-05-01T18:19:09.853Z,7.80
2019-05-01T18:21:46.875Z,9.58
2019-05-01T18:24:24.689Z,7.78
2019-05-01T18:27:14.660Z,6.92
2019-05-01T18:29:45.763Z,6.55
2019-05-01T18:32:18.671Z,8.48
2019-05-01T18:34:50.487Z,10.03
2019-05-01T18:37:39.451Z,7.80
2019-05-01T18:40:14.478Z,9.18
2019-05-01T18:42:45.218Z,8.28
2019-05-01T18:45:20.139Z,9.70
2019-05-01T18:47:52.209Z,6.92
2019-05-01T18:50:22.941Z,8.60
2019-05-01T18:52:56.750Z,8.83
2019-05-01T18:55:30.379Z,9.25
2019-05-01T18:57:59.851Z,8.80
2019-05-01T19:00:30.688Z,8.83
2019-05-01T19:03:04.264Z,7.83
2019-05-01T19:05:43.141Z,6.87
2019-05-01T19:08:16.096Z,10.45
2019-05-01T19:10:49.188Z,7.12
2019-05-01T19:13:22.578Z,13.83
2019-05-01T19:15:54.618Z,8.80
2019-05-01T19:18:28.038Z,8.30
2019-05-01T19:20:59.976Z,9.05
2019-05-01T19:23:33.420Z,8.65
2019-05-01T19:26:06.786Z,7.60
2019-05-01T19:28:37.846Z,10.20
2019-05-01T19:31:09.988Z,8.13
2019-05-01T19:33:41.886Z,7.80
2019-05-01T19:36:16.155Z,8.30
2019-05-01T19:38:47.832Z,12.65
2019-05-01T19:41:22.221Z,9.30
2019-05-01T19:43:56.976Z,6.72
2019-05-01T19:46:28.857Z,8.35
2019-05-01T19:48:59.462Z,9.33
2019-05-01T19:51:31.693Z,6.87
2019-05-01T19:54:03.852Z,8.38
2019-05-01T19:56:34.679Z,8.45
2019-05-01T19:59:10.892Z,6.25
2019-05-01T20:01:44.576Z,6.72
2019-05-01T20:04:16.528Z,6.90
2019-05-01T20:06:47.787Z,7.80
2019-05-01T20:09:18.616Z,7.53
2019-05-01T20:11:51.191Z,7.00
2019-05-01T20:14:21.945Z,6.90
2019-05-01T20:16:55.753Z,6.37
2019-05-01T20:19:27.921Z,8.13
2019-05-01T20:21:58.650Z,11.03
2019-05-01T20:24:29.972Z,7.28
2019-05-01T20:27:00.833Z,8.83
2019-05-01T20:29:32.179Z,10.05
2019-05-01T20:32:04.039Z,8.88
2019-05-01T20:34:35.319Z,8.85
2019-05-01T20:37:06.733Z,7.78
2019-05-01T20:39:39.238Z,10.43
2019-05-01T20:42:10.452Z,7.78
2019-05-01T20:44:41.186Z,9.00
2019-05-01T20:47:11.814Z,8.75
2019-05-01T20:49:42.536Z,8.05
2019-05-01T20:52:14.413Z,10.38
2019-05-01T20:54:44.936Z,8.43
2019-05-01T20:57:27.085Z,8.53
2019-05-01T21:00:00.538Z,8.23
2019-05-01T21:02:31.778Z,9.98
2019-05-01T21:05:22.478Z,10.13
2019-05-01T21:07:56.658Z,10.70
2019-05-01T21:10:29.922Z,10.15
2019-05-01T21:13:01.230Z,12.88
2019-05-01T21:15:31.989Z,11.68
2019-05-01T21:18:02.696Z,11.38
2019-05-01T21:20:33.890Z,10.23
2019-05-01T21:23:10.530Z,10.48
2019-05-01T21:25:36.842Z,10.80
2019-05-01T21:28:08.804Z,12.75
2019-05-01T21:44:49.557Z,12.37
2019-05-01T21:47:20.084Z,12.35
2019-05-01T21:49:52.959Z,10.48
2019-05-01T21:52:26.600Z,11.50
2019-05-01T21:54:55.498Z,13.72
2019-05-01T21:57:29.577Z,12.20
2019-05-01T21:59:58.055Z,14.47
2019-05-01T22:02:28.040Z,12.05
2019-05-01T22:04:58.010Z,12.75
2019-05-01T22:07:29.087Z,10.25
2019-05-01T22:09:59.065Z,10.75
